createdAt,value
2019-04-01T00:00:58.804Z,6.74
2019-04-01T00:05:06.878Z,6.77
2019-04-01T00:09:14.815Z,6.62
2019-04-01T00:13:23.113Z,6.53
2019-04-01T00:17:30.675Z,6.35
2019-04-01T00:21:38.872Z,6.36
2019-04-01T00:25:47.478Z,6.30
2019-04-01T00:29:55.203Z,6.21
2019-04-01T00:34:03.404Z,6.13
2019-04-01T00:38:11.018Z,6.02
2019-04-01T00:42:33.345Z,5.66
2019-04-01T00:46:41.782Z,5.50
2019-04-01T00:50:49.606Z,5.55
2019-04-01T00:54:57.720Z,5.23
2019-04-01T00:59:05.930Z,5.13
2019-04-01T01:03:13.742Z,5.26
2019-04-01T01:07:21.804Z,5.33
2019-04-01T01:11:29.585Z,5.39
2019-04-01T01:15:37.298Z,5.40
2019-04-01T01:19:45.610Z,5.46
2019-04-01T01:23:53.740Z,5.43
2019-04-01T01:28:01.446Z,5.15
2019-04-01T01:32:09.258Z,5.26
2019-04-01T01:36:17.046Z,5.25
2019-04-01T01:40:25.067Z,5.29
2019-04-01T01:44:33.286Z,5.17
2019-04-01T01:48:42.002Z,5.04
2019-04-01T01:52:49.707Z,5.08
2019-04-01T01:56:57.946Z,4.99
2019-04-01T02:01:06.781Z,5.28
2019-04-01T02:05:14.593Z,5.70
2019-04-01T02:09:22.497Z,5.96
2019-04-01T02:13:30.110Z,6.11
2019-04-01T02:17:38.832Z,6.18
2019-04-01T02:21:47.056Z,6.01
2019-04-01T02:25:54.757Z,5.83
2019-04-01T02:30:03.101Z,5.80
2019-04-01T02:34:12.234Z,5.95
2019-04-01T02:38:19.832Z,5.80
2019-04-01T02:42:27.843Z,5.55
2019-04-01T02:46:36.322Z,5.53
2019-04-01T02:50:43.986Z,5.59
2019-04-01T02:54:52.092Z,5.51
2019-04-01T02:59:00.396Z,5.53
2019-04-01T03:03:08.134Z,5.71
2019-04-01T03:07:16.140Z,5.81
2019-04-01T03:11:24.035Z,5.78
2019-04-01T03:15:31.957Z,5.80
2019-04-01T03:19:39.777Z,5.90
2019-04-01T03:23:47.492Z,6.06
2019-04-01T03:27:56.234Z,6.13
2019-04-01T03:32:04.118Z,6.28
2019-04-01T03:36:11.968Z,6.39
2019-04-01T03:40:19.833Z,6.48
2019-04-01T03:44:28.375Z,6.55
2019-04-01T03:48:36.597Z,6.52
2019-04-01T03:52:44.298Z,6.47
2019-04-01T03:56:52.306Z,6.43
2019-04-01T04:01:00.507Z,6.62
2019-04-01T04:05:08.388Z,6.68
2019-04-01T04:09:16.258Z,6.98
2019-04-01T04:13:24.363Z,7.16
2019-04-01T04:17:32.069Z,7.15
2019-04-01T04:21:40.093Z,7.23
2019-04-01T04:25:50.394Z,7.38
2019-04-01T04:29:58.064Z,7.44
2019-04-01T04:34:06.373Z,7.45
2019-04-01T04:38:14.568Z,7.55
2019-04-01T04:42:22.523Z,7.84
2019-04-01T04:46:30.342Z,8.00
2019-04-01T04:50:38.254Z,8.24
2019-04-01T04:54:45.962Z,8.64
2019-04-01T04:58:53.978Z,9.07
2019-04-01T05:03:01.773Z,9.26
2019-04-01T05:07:09.505Z,9.79
2019-04-01T05:11:17.715Z,10.30
2019-04-01T05:15:25.413Z,10.22
2019-04-01T05:19:33.425Z,11.19
2019-04-01T05:23:41.530Z,11.24
2019-04-01T05:27:50.043Z,11.49
2019-04-01T05:32:00.052Z,11.66
2019-04-01T05:36:09.096Z,12.00
2019-04-01T05:40:17.089Z,12.32
2019-04-01T05:44:24.896Z,12.80
2019-04-01T05:48:33.227Z,12.40
2019-04-01T05:52:41.028Z,13.01
2019-04-01T05:56:49.056Z,11.90
2019-04-01T06:01:02.376Z,11.65
2019-04-01T06:05:10.511Z,12.31
2019-04-01T06:09:18.871Z,13.57
2019-04-01T06:13:26.762Z,14.34
2019-04-01T06:17:35.058Z,14.58
2019-04-01T06:21:42.784Z,14.78
2019-04-01T06:25:51.097Z,15.03
2019-04-01T06:29:59.394Z,15.86
2019-04-01T06:34:07.236Z,14.91
2019-04-01T06:38:15.237Z,15.69
2019-04-01T06:42:23.057Z,16.59
2019-04-01T06:46:31.377Z,15.95
2019-04-01T06:50:39.365Z,16.12
2019-04-01T06:54:47.415Z,16.30
2019-04-01T06:58:55.421Z,17.00
2019-04-01T07:03:04.027Z,17.57
2019-04-01T07:07:19.005Z,17.02
2019-04-01T07:11:21.842Z,17.70
2019-04-01T07:15:29.551Z,17.70
2019-04-01T07:19:37.252Z,19.11
2019-04-01T07:23:45.851Z,19.11
2019-04-01T07:27:53.592Z,19.41
2019-04-01T07:32:01.584Z,18.40
2019-04-01T07:36:10.319Z,19.74
2019-04-01T07:40:18.347Z,20.56
2019-04-01T07:44:26.348Z,20.76
2019-04-01T07:48:33.933Z,20.35
2019-04-01T07:52:41.506Z,20.65
2019-04-01T07:56:49.508Z,21.07
2019-04-01T08:00:57.294Z,21.64
2019-04-01T08:05:05.403Z,21.83
2019-04-01T08:09:13.430Z,21.88
2019-04-01T08:13:21.532Z,21.07
2019-04-01T08:17:29.335Z,21.34
2019-04-01T08:21:37.254Z,22.36
2019-04-01T08:25:47.750Z,22.50
2019-04-01T08:29:54.518Z,22.06
2019-04-01T08:34:02.632Z,22.49
2019-04-01T08:38:10.977Z,22.46
2019-04-01T08:42:19.365Z,22.04
2019-04-01T08:46:27.596Z,23.09
2019-04-01T08:50:35.552Z,23.38
2019-04-01T08:54:43.326Z,23.03
2019-04-01T08:58:51.234Z,22.70
2019-04-01T09:02:59.245Z,23.20
2019-04-01T09:07:07.076Z,24.54
2019-04-01T09:11:15.294Z,24.54
2019-04-01T09:15:23.194Z,23.53
2019-04-01T09:19:30.990Z,24.28
2019-04-01T09:23:38.914Z,23.56
2019-04-01T09:27:46.725Z,24.28
2019-04-01T09:31:54.819Z,23.27
2019-04-01T09:36:02.857Z,23.27
2019-04-01T09:40:11.266Z,22.71
2019-04-01T09:44:18.919Z,21.98
2019-04-01T09:48:27.312Z,22.71
2019-04-01T09:52:35.406Z,22.31
2019-04-01T09:56:43.341Z,22.66
2019-04-01T10:00:53.214Z,22.02
2019-04-01T10:05:00.599Z,21.77
2019-04-01T10:09:09.679Z,21.44
2019-04-01T10:13:17.427Z,22.57
2019-04-01T10:17:25.237Z,21.47
2019-04-01T10:21:33.474Z,22.39
2019-04-01T10:25:41.261Z,22.26
2019-04-01T10:29:49.088Z,21.48
2019-04-01T10:33:56.978Z,22.19
2019-04-01T10:38:04.807Z,20.88
2019-04-01T10:42:13.456Z,21.69
2019-04-01T10:46:21.658Z,22.13
2019-04-01T10:50:29.446Z,21.64
2019-04-01T10:54:37.335Z,22.18
2019-04-01T10:58:45.137Z,21.94
2019-04-01T11:02:52.720Z,21.22
2019-04-01T11:07:01.121Z,20.86
2019-04-01T11:11:08.930Z,20.45
2019-04-01T11:15:17.513Z,20.57
2019-04-01T11:19:25.371Z,21.60
2019-04-01T11:23:33.914Z,20.77
2019-04-01T11:27:42.512Z,20.17
2019-04-01T11:31:50.662Z,21.03
2019-04-01T11:35:58.479Z,21.11
2019-04-01T11:40:10.953Z,21.47
2019-04-01T11:44:17.063Z,20.59
2019-04-01T11:48:24.768Z,20.00
2019-04-01T11:52:33.166Z,20.34
2019-04-01T11:56:41.513Z,20.51
2019-04-01T12:00:49.732Z,21.64
2019-04-01T12:04:58.127Z,21.08
2019-04-01T12:09:07.822Z,20.69
2019-04-01T12:13:15.420Z,21.68
2019-04-01T12:17:23.556Z,21.05
2019-04-01T12:21:33.403Z,21.11
2019-04-01T12:25:40.932Z,21.12
2019-04-01T12:29:48.883Z,20.45
2019-04-01T12:33:56.930Z,20.85
2019-04-01T12:38:05.458Z,21.18
2019-04-01T12:42:13.418Z,20.82
2019-04-01T12:46:21.265Z,20.60
2019-04-01T12:50:29.571Z,21.38
2019-04-01T12:54:37.916Z,21.12
2019-04-01T12:58:45.618Z,21.17
2019-04-01T13:02:53.615Z,21.99
2019-04-01T13:07:04.895Z,22.25
2019-04-01T13:11:11.318Z,22.67
2019-04-01T13:15:19.106Z,20.50
2019-04-01T13:19:26.819Z,19.63
2019-04-01T13:23:34.541Z,20.42
2019-04-01T13:27:42.843Z,19.98
2019-04-01T13:31:51.305Z,19.85
2019-04-01T13:35:59.363Z,19.98
2019-04-01T13:40:09.002Z,21.25
2019-04-01T13:44:16.759Z,20.92
2019-04-01T13:48:24.749Z,19.40
2019-04-01T13:52:33.189Z,19.73
2019-04-01T13:56:42.954Z,19.69
2019-04-01T14:00:51.175Z,19.84
2019-04-01T14:04:58.970Z,20.58
2019-04-01T14:09:08.205Z,20.15
2019-04-01T14:13:16.222Z,19.30
2019-04-01T14:17:24.596Z,18.93
2019-04-01T14:21:32.363Z,19.34
2019-04-01T14:25:40.285Z,19.71
2019-04-01T14:29:48.085Z,20.28
2019-04-01T14:33:55.799Z,20.46
2019-04-01T14:38:03.691Z,19.50
2019-04-01T14:42:11.937Z,19.57
2019-04-01T14:46:20.649Z,19.63
2019-04-01T14:50:28.726Z,19.30
2019-04-01T14:54:36.675Z,19.49
2019-04-01T14:58:44.328Z,19.28
2019-04-01T15:02:52.249Z,19.08
2019-04-01T15:06:59.804Z,19.09
2019-04-01T15:11:08.105Z,19.22
2019-04-01T15:15:16.553Z,18.98
2019-04-01T15:19:24.376Z,18.83
2019-04-01T15:23:32.171Z,18.43
2019-04-01T15:27:40.510Z,18.36
2019-04-01T15:31:48.155Z,18.28
2019-04-01T15:35:56.455Z,18.28
2019-04-01T15:40:05.143Z,17.92
2019-04-01T15:44:12.955Z,18.12
2019-04-01T15:48:20.866Z,17.79
2019-04-01T15:52:28.682Z,17.90
2019-04-01T15:56:36.290Z,17.90
2019-04-01T16:00:45.185Z,17.69
2019-04-01T16:04:52.833Z,17.48
2019-04-01T16:09:00.848Z,17.48
2019-04-01T16:13:09.576Z,17.42
2019-04-01T16:17:17.306Z,17.29
2019-04-01T16:21:25.114Z,17.27
2019-04-01T16:25:32.910Z,16.89
2019-04-01T16:29:40.528Z,16.59
2019-04-01T16:33:48.982Z,16.86
2019-04-01T16:37:59.339Z,16.80
2019-04-01T16:42:06.200Z,16.51
2019-04-01T16:46:14.141Z,16.22
2019-04-01T16:50:22.039Z,16.01
2019-04-01T16:54:30.141Z,15.65
2019-04-01T16:58:38.080Z,15.03
2019-04-01T17:02:45.781Z,15.14
2019-04-01T17:06:53.893Z,14.72
2019-04-01T17:11:02.192Z,14.34
2019-04-01T17:15:10.303Z,14.36
2019-04-01T17:19:18.134Z,14.24
2019-04-01T17:23:28.092Z,14.10
2019-04-01T17:27:35.395Z,13.96
2019-04-01T17:31:43.199Z,13.95
2019-04-01T17:35:51.014Z,13.80
2019-04-01T17:39:58.734Z,13.37
2019-04-01T17:44:06.764Z,13.41
2019-04-01T17:48:15.470Z,13.02
2019-04-01T17:52:25.180Z,13.26
2019-04-01T17:56:33.307Z,13.04
2019-04-01T18:00:46.079Z,12.68
2019-04-01T18:04:55.093Z,12.68
2019-04-01T18:09:03.912Z,12.72
2019-04-01T18:13:11.967Z,12.37
2019-04-01T18:17:21.413Z,12.16
2019-04-01T18:21:30.018Z,12.53
2019-04-01T18:25:38.070Z,12.73
2019-04-01T18:29:46.287Z,12.73
2019-04-01T18:33:56.560Z,12.64
2019-04-01T18:38:03.938Z,12.73
2019-04-01T18:42:12.270Z,12.78
2019-04-01T18:46:21.138Z,12.64
2019-04-01T18:50:29.824Z,12.57
2019-04-01T18:54:38.555Z,12.49
2019-04-01T18:58:46.364Z,12.55
2019-04-01T19:02:55.685Z,12.63
2019-04-01T19:07:04.414Z,12.49
2019-04-01T19:11:12.565Z,12.43
2019-04-01T19:15:20.812Z,12.43
2019-04-01T19:19:29.295Z,12.51
2019-04-01T19:23:37.014Z,12.61
2019-04-01T19:27:45.041Z,12.76
2019-04-01T19:31:52.822Z,12.81
2019-04-01T19:36:01.366Z,12.78
2019-04-01T19:40:11.003Z,12.56
2019-04-01T19:44:18.627Z,12.64
2019-04-01T19:48:26.760Z,12.61
2019-04-01T19:52:35.323Z,12.77
2019-04-01T19:56:43.187Z,12.79
2019-04-01T20:00:51.415Z,12.62
2019-04-01T20:04:59.409Z,12.54
2019-04-01T20:09:08.781Z,12.48
2019-04-01T20:13:16.995Z,12.47
2019-04-01T20:17:25.077Z,12.58
2019-04-01T20:21:32.942Z,12.44
2019-04-01T20:25:40.669Z,12.57
2019-04-01T20:29:48.920Z,12.43
2019-04-01T20:33:56.635Z,12.47
2019-04-01T20:38:05.286Z,12.49
2019-04-01T20:42:13.191Z,12.77
2019-04-01T20:46:20.900Z,12.87
2019-04-01T20:50:28.910Z,13.03
2019-04-01T20:54:36.824Z,13.25
2019-04-01T20:58:45.036Z,13.03
2019-04-01T21:02:53.670Z,12.94
2019-04-01T21:07:01.388Z,12.86
2019-04-01T21:11:10.232Z,12.60
2019-04-01T21:15:19.896Z,12.55
2019-04-01T21:19:27.668Z,12.38
2019-04-01T21:23:36.139Z,12.41
2019-04-01T21:27:44.327Z,12.30
2019-04-01T21:31:52.114Z,12.13
2019-04-01T21:36:00.137Z,11.91
2019-04-01T21:40:08.198Z,11.62
2019-04-01T21:44:15.948Z,11.55
2019-04-01T21:48:23.777Z,11.68
2019-04-01T21:52:31.782Z,11.70
2019-04-01T21:56:39.412Z,11.70
2019-04-01T22:00:53.712Z,11.68
2019-04-01T22:05:04.736Z,11.65
2019-04-01T22:09:12.547Z,11.57
2019-04-01T22:13:20.668Z,11.60
2019-04-01T22:17:28.372Z,11.58
2019-04-01T22:21:36.686Z,11.66
2019-04-01T22:25:44.835Z,11.61
2019-04-01T22:29:52.430Z,11.62
2019-04-01T22:34:00.338Z,11.56
2019-04-01T22:38:08.251Z,11.53
2019-04-01T22:42:16.267Z,11.51
2019-04-01T22:46:24.365Z,11.42
2019-04-01T22:50:34.458Z,11.48
2019-04-01T22:54:41.940Z,11.51
2019-04-01T22:58:51.106Z,11.49
2019-04-01T23:02:58.944Z,11.55
2019-04-01T23:07:06.507Z,11.49
2019-04-01T23:11:14.722Z,11.48
2019-04-01T23:15:23.964Z,11.45
2019-04-01T23:19:31.431Z,11.44
2019-04-01T23:23:39.421Z,11.51
2019-04-01T23:27:47.269Z,11.36
2019-04-01T23:31:55.487Z,11.45
2019-04-01T23:36:03.709Z,11.33
2019-04-01T23:40:11.528Z,11.31
2019-04-01T23:44:19.951Z,11.29
2019-04-01T23:48:28.357Z,11.34
2019-04-01T23:52:36.286Z,11.22
2019-04-01T23:56:44.569Z,11.21
